createdAt,value
2018-11-23T00:02:28.185Z,102149.75
2018-11-23T00:05:32.687Z,102153.59
2018-11-23T00:08:38.015Z,102150.51
2018-11-23T00:11:42.709Z,102142.82
2018-11-23T00:14:47.101Z,102139.06
2018-11-23T00:17:51.423Z,102133.89
2018-11-23T00:20:56.077Z,102135.80
2018-11-23T00:24:01.119Z,102135.00
2018-11-23T00:27:05.848Z,102128.33
2018-11-23T00:30:14.901Z,102132.52
2018-11-23T00:33:19.481Z,102130.72
2018-11-23T00:36:23.799Z,102123.02
2018-11-23T00:39:29.418Z,102125.98
2018-11-23T00:42:34.180Z,102119.70
2018-11-23T00:45:43.031Z,102119.70
2018-11-23T00:48:42.978Z,102128.45
2018-11-23T00:51:47.489Z,102120.36
2018-11-23T00:54:51.871Z,102116.42
2018-11-23T00:57:56.407Z,102122.61
2018-11-23T01:01:03.742Z,102114.13
2018-11-23T01:04:08.091Z,102111.83
2018-11-23T01:10:24.973Z,102114.26
2018-11-23T01:13:29.623Z,102108.61
2018-11-23T01:16:34.052Z,102111.64
2018-11-23T01:19:39.536Z,102107.80
2018-11-23T01:22:44.207Z,102100.54
2018-11-23T01:25:48.684Z,102103.32
2018-11-23T01:28:53.637Z,102103.32
2018-11-23T01:31:58.182Z,102099.47
2018-11-23T01:35:02.947Z,102094.30
2018-11-23T01:38:07.492Z,102091.73
2018-11-23T01:41:11.904Z,102095.13
2018-11-23T01:44:17.775Z,102093.51
2018-11-23T01:47:23.115Z,102100.72
2018-11-23T01:50:28.872Z,102100.20
2018-11-23T01:53:34.414Z,102095.98
2018-11-23T01:56:40.040Z,102090.94
2018-11-23T01:59:44.417Z,102093.51
2018-11-23T02:02:49.405Z,102082.70
2018-11-23T02:05:54.956Z,102082.42
2018-11-23T02:08:59.540Z,102089.39
2018-11-23T02:12:04.011Z,102080.81
2018-11-23T02:15:14.049Z,102072.66
2018-11-23T02:18:18.731Z,102072.78
2018-11-23T02:21:23.472Z,102074.27
2018-11-23T02:24:27.990Z,102068.87
2018-11-23T02:27:32.463Z,102065.31
2018-11-23T02:30:37.034Z,102061.47
2018-11-23T02:33:42.894Z,102062.66
2018-11-23T02:36:47.376Z,102059.51
2018-11-23T02:39:51.834Z,102056.34
2018-11-23T02:42:56.385Z,102055.58
2018-11-23T02:46:00.870Z,102056.58
2018-11-23T02:49:05.491Z,102052.40
2018-11-23T02:52:09.865Z,102052.67
2018-11-23T02:55:15.564Z,102047.05
2018-11-23T02:58:19.858Z,102048.34
2018-11-23T03:01:24.277Z,102041.52
2018-11-23T03:04:28.704Z,102047.05
2018-11-23T03:07:34.925Z,102045.77
2018-11-23T03:10:39.589Z,102044.25
2018-11-23T03:13:44.805Z,102034.11
2018-11-23T03:16:49.479Z,102038.96
2018-11-23T03:19:53.851Z,102037.89
2018-11-23T03:22:58.175Z,102028.30
2018-11-23T03:26:03.061Z,102024.24
2018-11-23T03:29:07.524Z,102026.74
2018-11-23T03:32:11.852Z,102021.54
2018-11-23T03:35:16.570Z,102015.82
2018-11-23T03:38:20.898Z,102008.98
2018-11-23T03:41:30.748Z,102014.12
2018-11-23T03:44:35.062Z,102007.52
2018-11-23T03:47:39.653Z,102009.04
2018-11-23T03:50:43.976Z,102010.41
2018-11-23T03:53:48.340Z,102009.33
2018-11-23T03:56:52.754Z,102011.67
2018-11-23T03:59:57.087Z,102011.31
2018-11-23T04:03:01.989Z,102011.16
2018-11-23T04:06:06.668Z,102011.60
2018-11-23T04:09:13.430Z,102010.70
2018-11-23T04:12:17.853Z,102011.27
2018-11-23T04:15:22.350Z,102010.53
2018-11-23T04:18:28.862Z,102007.56
2018-11-23T04:21:34.527Z,102011.48
2018-11-23T04:24:39.844Z,102009.13
2018-11-23T04:27:45.560Z,102011.48
2018-11-23T04:30:49.948Z,102010.76
2018-11-23T04:33:54.342Z,102008.12
2018-11-23T04:36:58.814Z,102003.99
2018-11-23T04:40:03.127Z,102004.79
2018-11-23T04:43:08.223Z,102002.30
2018-11-23T04:46:12.699Z,102006.14
2018-11-23T04:49:17.186Z,102002.30
2018-11-23T04:52:22.260Z,102007.30
2018-11-23T04:55:26.625Z,102010.08
2018-11-23T04:58:31.084Z,102002.91
2018-11-23T05:01:35.864Z,102003.59
2018-11-23T05:04:41.072Z,102009.04
2018-11-23T05:07:46.658Z,102005.19
2018-11-23T05:10:51.076Z,102001.42
2018-11-23T05:13:55.991Z,102002.71
2018-11-23T05:17:00.518Z,102004.59
2018-11-23T05:20:05.588Z,102007.08
2018-11-23T05:23:10.876Z,102011.30
2018-11-23T05:26:15.213Z,102003.78
2018-11-23T05:29:19.559Z,102005.06
2018-11-23T05:32:23.882Z,102007.36
2018-11-23T05:35:28.223Z,102002.71
2018-11-23T05:38:32.502Z,102008.84
2018-11-23T05:41:37.223Z,102011.81
2018-11-23T05:44:41.606Z,102004.52
2018-11-23T05:47:46.067Z,102002.71
2018-11-23T05:50:50.744Z,102004.79
2018-11-23T05:53:55.194Z,102001.15
2018-11-23T05:56:59.503Z,102002.43
2018-11-23T06:00:04.805Z,101999.53
2018-11-23T06:03:09.308Z,102003.78
2018-11-23T06:06:13.614Z,101997.93
2018-11-23T06:09:18.427Z,101993.87
2018-11-23T06:12:22.844Z,101993.87
2018-11-23T06:15:27.253Z,101993.87
2018-11-23T06:18:32.777Z,101997.44
2018-11-23T06:21:37.128Z,101991.83
2018-11-23T06:24:41.460Z,101989.67
2018-11-23T06:27:45.797Z,101993.41
2018-11-23T06:30:50.132Z,101985.02
2018-11-23T06:33:54.801Z,101989.75
2018-11-23T06:36:59.428Z,101992.80
2018-11-23T06:40:03.934Z,101992.80
2018-11-23T06:43:08.417Z,101991.68
2018-11-23T06:46:14.378Z,101996.50
2018-11-23T06:49:18.689Z,101996.02
2018-11-23T06:52:23.006Z,101992.97
2018-11-23T06:55:27.678Z,101997.58
2018-11-23T06:58:31.975Z,101986.10
2018-11-23T07:01:36.372Z,101992.64
2018-11-23T07:04:40.769Z,101993.41
2018-11-23T07:07:45.103Z,101991.44
2018-11-23T07:10:49.559Z,101988.67
2018-11-23T07:13:53.911Z,101991.95
2018-11-23T07:16:58.280Z,101990.16
2018-11-23T07:20:02.742Z,101995.13
2018-11-23T07:23:07.241Z,101992.97
2018-11-23T07:26:12.371Z,101998.02
2018-11-23T07:29:16.771Z,102004.11
2018-11-23T07:32:21.271Z,101992.56
2018-11-23T07:35:25.695Z,101991.89
2018-11-23T07:38:31.578Z,101994.59
2018-11-23T07:41:53.214Z,101996.75
2018-11-23T07:44:59.085Z,101997.15
2018-11-23T07:48:05.081Z,101997.15
2018-11-23T07:51:09.400Z,101978.98
2018-11-23T07:54:13.781Z,101985.60
2018-11-23T07:57:18.106Z,101979.67
2018-11-23T08:00:24.504Z,101982.67
2018-11-23T08:03:29.066Z,101978.38
2018-11-23T08:06:33.361Z,101970.23
2018-11-23T08:09:37.977Z,101971.81
2018-11-23T08:12:44.866Z,101967.76
2018-11-23T08:15:49.445Z,101971.12
2018-11-23T08:18:53.744Z,101972.81
2018-11-23T08:21:58.158Z,101966.39
2018-11-23T08:25:02.511Z,101960.17
2018-11-23T08:28:06.925Z,101963.55
2018-11-23T08:31:11.837Z,101956.24
2018-11-23T08:34:16.246Z,101959.89
2018-11-23T08:37:20.658Z,101960.50
2018-11-23T08:40:26.912Z,101964.55
2018-11-23T08:43:31.454Z,101961.41
2018-11-23T08:46:37.990Z,101959.73
2018-11-23T08:49:42.476Z,101953.03
2018-11-23T08:52:46.931Z,101966.75
2018-11-23T08:55:51.646Z,101961.53
2018-11-23T08:58:58.064Z,101964.19
2018-11-23T09:02:03.071Z,101961.22
2018-11-23T09:05:07.890Z,101956.88
2018-11-23T09:08:12.159Z,101962.30
2018-11-23T09:11:17.726Z,101953.99
2018-11-23T09:14:22.135Z,101952.39
2018-11-23T09:17:26.556Z,101954.59
2018-11-23T09:20:30.890Z,101952.91
2018-11-23T09:23:35.233Z,101946.49
2018-11-23T09:26:39.586Z,101942.13
2018-11-23T09:29:43.980Z,101943.73
2018-11-23T09:32:49.055Z,101943.92
2018-11-23T09:35:53.396Z,101943.55
2018-11-23T09:38:57.688Z,101946.29
2018-11-23T09:42:01.975Z,101943.92
2018-11-23T09:45:09.578Z,101942.44
2018-11-23T09:48:13.856Z,101931.77
2018-11-23T09:51:18.161Z,101938.87
2018-11-23T09:54:22.441Z,101933.97
2018-11-23T09:57:26.726Z,101936.42
2018-11-23T10:00:32.734Z,101937.50
2018-11-23T10:03:37.055Z,101933.37
2018-11-23T10:06:41.426Z,101931.57
2018-11-23T10:09:45.744Z,101929.72
2018-11-23T10:12:49.996Z,101934.17
2018-11-23T10:15:54.287Z,101933.05
2018-11-23T10:18:58.567Z,101933.73
2018-11-23T10:22:02.933Z,101932.66
2018-11-23T10:25:09.262Z,101925.23
2018-11-23T10:28:13.533Z,101919.13
2018-11-23T10:31:18.037Z,101919.53
2018-11-23T10:34:22.402Z,101924.95
2018-11-23T10:37:26.787Z,101917.65
2018-11-23T10:40:35.752Z,101916.45
2018-11-23T10:43:40.111Z,101918.25
2018-11-23T10:46:44.442Z,101918.64
2018-11-23T10:49:48.811Z,101910.17
2018-11-23T10:52:53.202Z,101911.66
2018-11-23T10:55:57.629Z,101908.48
2018-11-23T10:59:01.995Z,101903.33
2018-11-23T11:02:11.713Z,101905.49
2018-11-23T11:05:21.183Z,101900.19
2018-11-23T11:08:25.743Z,101895.05
2018-11-23T11:11:30.128Z,101894.53
2018-11-23T11:14:34.552Z,101893.45
2018-11-23T11:17:38.896Z,101885.47
2018-11-23T11:20:43.260Z,101887.83
2018-11-23T11:23:47.575Z,101883.58
2018-11-23T11:26:51.876Z,101884.97
2018-11-23T11:29:56.184Z,101876.80
2018-11-23T11:33:00.472Z,101870.78
2018-11-23T11:36:04.794Z,101874.22
2018-11-23T11:39:11.866Z,101870.59
2018-11-23T11:42:16.601Z,101866.64
2018-11-23T11:45:20.966Z,101865.03
2018-11-23T11:48:25.265Z,101867.23
2018-11-23T11:51:29.745Z,101862.29
2018-11-23T11:54:33.997Z,101851.50
2018-11-23T11:57:38.485Z,101854.18
2018-11-23T12:00:42.791Z,101848.55
2018-11-23T12:03:48.361Z,101836.58
2018-11-23T12:06:57.193Z,101848.06
2018-11-23T12:10:02.942Z,101838.55
2018-11-23T12:13:07.914Z,101833.61
2018-11-23T12:16:13.934Z,101833.03
2018-11-23T12:19:21.511Z,101827.58
2018-11-23T12:22:27.983Z,101832.53
2018-11-23T12:25:34.395Z,101823.64
2018-11-23T12:28:41.382Z,101820.86
2018-11-23T12:31:46.541Z,101820.86
2018-11-23T12:34:50.890Z,101816.72
2018-11-23T12:37:55.187Z,101807.50
2018-11-23T12:40:59.825Z,101809.88
2018-11-23T12:44:05.487Z,101807.61
2018-11-23T12:47:09.774Z,101799.23
2018-11-23T12:50:16.938Z,101804.26
2018-11-23T12:53:21.330Z,101794.68
2018-11-23T12:56:26.081Z,101795.97
2018-11-23T12:59:30.465Z,101789.03
2018-11-23T13:02:34.751Z,101789.43
2018-11-23T13:05:39.355Z,101782.61
2018-11-23T13:08:43.995Z,101788.63
2018-11-23T13:11:48.340Z,101779.64
2018-11-23T13:14:52.681Z,101778.86
2018-11-23T13:17:57.628Z,101777.98
2018-11-23T13:21:02.155Z,101779.85
2018-11-23T13:24:06.710Z,101767.00
2018-11-23T13:27:15.398Z,101765.02
2018-11-23T13:30:23.235Z,101765.72
2018-11-23T13:33:27.564Z,101766.60
2018-11-23T13:36:33.110Z,101761.86
2018-11-23T13:39:37.412Z,101754.56
2018-11-23T13:42:41.780Z,101752.28
2018-11-23T13:45:46.205Z,101751.11
2018-11-23T13:48:52.441Z,101750.23
2018-11-23T13:51:56.861Z,101752.09
2018-11-23T13:55:01.290Z,101748.46
2018-11-23T13:58:06.138Z,101741.82
2018-11-23T14:01:10.577Z,101738.45
2018-11-23T14:04:14.998Z,101741.13
2018-11-23T14:07:19.508Z,101744.39
2018-11-23T14:10:25.109Z,101740.72
2018-11-23T14:13:29.426Z,101739.84
2018-11-23T14:16:35.215Z,101736.69
2018-11-23T14:19:39.559Z,101740.75
2018-11-23T14:22:44.100Z,101735.51
2018-11-23T14:25:48.597Z,101743.91
2018-11-23T14:28:53.110Z,101736.90
2018-11-23T14:31:57.575Z,101739.28
2018-11-23T14:35:02.125Z,101733.52
2018-11-23T14:38:07.928Z,101736.20
2018-11-23T14:41:12.289Z,101741.23
2018-11-23T14:44:16.634Z,101734.22
2018-11-23T14:47:22.347Z,101737.59
2018-11-23T14:50:28.209Z,101733.74
2018-11-23T14:53:32.582Z,101733.34
2018-11-23T14:56:36.987Z,101731.17
2018-11-23T14:59:41.289Z,101731.17
2018-11-23T15:02:46.846Z,101730.00
2018-11-23T15:05:51.360Z,101731.87
2018-11-23T15:08:55.664Z,101730.29
2018-11-23T15:12:00.064Z,101715.77
2018-11-23T15:15:04.519Z,101715.98
2018-11-23T15:18:09.465Z,101719.32
2018-11-23T15:21:13.855Z,101711.80
2018-11-23T15:24:18.222Z,101709.52
2018-11-23T15:27:22.536Z,101712.60
2018-11-23T15:30:30.310Z,101712.79
2018-11-23T15:33:34.662Z,101706.55
2018-11-23T15:36:40.605Z,101705.67
2018-11-23T15:39:47.788Z,101699.77
2018-11-23T15:42:54.101Z,101695.40
2018-11-23T15:45:58.441Z,101695.40
2018-11-23T15:49:02.774Z,101694.92
2018-11-23T15:52:08.224Z,101701.05
2018-11-23T15:55:16.386Z,101701.05
2018-11-23T15:58:20.808Z,101693.53
2018-11-23T16:01:25.178Z,101696.02
2018-11-23T16:04:29.615Z,101681.30
2018-11-23T16:07:34.052Z,101682.27
2018-11-23T16:10:39.102Z,101681.78
2018-11-23T16:13:43.595Z,101680.50
2018-11-23T16:16:48.018Z,101680.09
2018-11-23T16:19:52.356Z,101679.33
2018-11-23T16:23:00.273Z,101674.95
2018-11-23T16:26:04.786Z,101676.94
2018-11-23T16:29:09.187Z,101678.63
2018-11-23T16:32:13.480Z,101677.52
2018-11-23T16:35:19.308Z,101673.59
2018-11-23T16:38:24.572Z,101671.52
2018-11-23T16:41:28.931Z,101664.31
2018-11-23T16:44:33.437Z,101664.39
2018-11-23T16:47:37.810Z,101658.89
2018-11-23T16:50:42.263Z,101653.53
2018-11-23T16:53:46.973Z,101650.08
2018-11-23T16:56:51.519Z,101645.06
2018-11-23T16:59:56.041Z,101643.00
2018-11-23T17:03:03.989Z,101645.24
2018-11-23T17:06:09.940Z,101640.44
2018-11-23T17:09:14.312Z,101644.77
2018-11-23T17:12:18.675Z,101642.89
2018-11-23T17:15:24.598Z,101643.00
2018-11-23T17:18:28.973Z,101647.04
2018-11-23T17:21:33.303Z,101640.73
2018-11-23T17:24:37.621Z,101632.52
2018-11-23T17:27:42.396Z,101633.91
2018-11-23T17:30:46.683Z,101630.64
2018-11-23T17:33:51.095Z,101633.50
2018-11-23T17:36:55.462Z,101631.12
2018-11-23T17:39:59.833Z,101636.87
2018-11-23T17:43:04.168Z,101640.91
2018-11-23T17:46:08.558Z,101642.60
2018-11-23T17:49:13.138Z,101640.03
2018-11-23T17:52:18.992Z,101640.91
2018-11-23T17:55:24.184Z,101643.30
2018-11-23T17:58:28.525Z,101638.38
2018-11-23T18:01:32.888Z,101638.86
2018-11-23T18:04:37.207Z,101641.35
2018-11-23T18:07:41.674Z,101635.52
2018-11-23T18:10:46.097Z,101633.72
2018-11-23T18:13:50.466Z,101635.81
2018-11-23T18:16:55.347Z,101630.57
2018-11-23T18:19:59.670Z,101629.47
2018-11-23T18:23:04.490Z,101624.66
2018-11-23T18:26:08.850Z,101623.75
2018-11-23T18:29:13.205Z,101621.88
2018-11-23T18:32:17.556Z,101623.16
2018-11-23T18:35:21.911Z,101619.53
2018-11-23T18:38:26.275Z,101622.09
2018-11-23T18:41:30.641Z,101616.85
2018-11-23T18:44:35.083Z,101613.48
2018-11-23T18:47:39.759Z,101612.13
2018-11-23T18:50:44.217Z,101611.31
2018-11-23T18:53:48.617Z,101613.48
2018-11-23T18:56:53.008Z,101617.84
2018-11-23T18:59:57.424Z,101617.33
2018-11-23T19:03:01.776Z,101615.86
2018-11-23T19:06:06.944Z,101611.53
2018-11-23T19:09:12.662Z,101610.55
2018-11-23T19:12:16.999Z,101599.80
2018-11-23T19:15:25.621Z,101598.41
2018-11-23T19:18:26.405Z,101593.67
2018-11-23T19:21:30.964Z,101595.84
2018-11-23T19:24:35.334Z,101586.96
2018-11-23T19:27:39.918Z,101586.56
2018-11-23T19:30:44.407Z,101586.48
2018-11-23T19:33:48.870Z,101586.67
2018-11-23T19:36:53.503Z,101578.50
2018-11-23T19:39:58.177Z,101576.22
2018-11-23T19:43:02.594Z,101578.50
2018-11-23T19:46:07.143Z,101577.50
2018-11-23T19:49:11.787Z,101577.61
2018-11-23T19:52:16.846Z,101574.53
2018-11-23T19:55:21.207Z,101576.63
2018-11-23T19:58:25.880Z,101573.47
2018-11-23T20:01:30.456Z,101578.68
2018-11-23T20:04:34.822Z,101572.08
2018-11-23T20:07:39.338Z,101570.28
2018-11-23T20:10:43.856Z,101567.61
2018-11-23T20:13:50.889Z,101565.55
2018-11-23T20:16:55.355Z,101555.77
2018-11-23T20:19:59.814Z,101552.53
2018-11-23T20:23:04.332Z,101544.03
2018-11-23T20:26:11.189Z,101548.69
2018-11-23T20:29:15.647Z,101544.83
2018-11-23T20:32:20.012Z,101541.09
2018-11-23T20:35:25.267Z,101549.45
2018-11-23T20:38:30.165Z,101546.89
2018-11-23T20:41:34.888Z,101541.28
2018-11-23T20:44:39.365Z,101541.58
2018-11-23T20:47:44.721Z,101538.13
2018-11-23T20:50:49.583Z,101549.27
2018-11-23T20:53:54.125Z,101554.88
2018-11-23T20:56:59.559Z,101552.31
2018-11-23T21:00:05.324Z,101549.49
2018-11-23T21:03:09.754Z,101540.80
2018-11-23T21:06:14.291Z,101540.22
2018-11-23T21:09:18.698Z,101533.80
2018-11-23T21:12:23.095Z,101530.73
2018-11-23T21:15:29.891Z,101528.67
2018-11-23T21:18:34.445Z,101525.92
2018-11-23T21:21:39.429Z,101524.42
2018-11-23T21:24:44.974Z,101519.98
2018-11-23T21:27:49.410Z,101517.42
2018-11-23T21:30:53.763Z,101517.02
2018-11-23T21:33:58.115Z,101513.27
2018-11-23T21:37:03.229Z,101508.22
2018-11-23T21:40:10.604Z,101509.91
2018-11-23T21:43:14.942Z,101509.50
2018-11-23T21:46:19.552Z,101512.58
2018-11-23T21:49:23.937Z,101509.13
2018-11-23T21:52:28.378Z,101506.45
2018-11-23T21:55:32.783Z,101509.72
2018-11-23T21:58:37.181Z,101505.11
2018-11-23T22:01:41.670Z,101503.42
2018-11-23T22:04:46.029Z,101501.33
2018-11-23T22:07:50.445Z,101503.31
2018-11-23T22:10:54.913Z,101502.03
2018-11-23T22:13:59.238Z,101497.59
2018-11-23T22:17:03.638Z,101500.74
2018-11-23T22:20:13.298Z,101504.22
2018-11-23T22:23:17.829Z,101502.03
2018-11-23T22:26:22.200Z,101497.41
2018-11-23T22:29:31.038Z,101497.00
2018-11-23T22:32:35.660Z,101499.28
2018-11-23T22:35:40.098Z,101487.84
2018-11-23T22:38:44.521Z,101487.33
2018-11-23T22:41:48.946Z,101478.16
2018-11-23T22:44:53.303Z,101479.05
2018-11-23T22:47:57.829Z,101483.08
2018-11-23T22:51:02.301Z,101483.48
2018-11-23T22:54:08.429Z,101474.20
2018-11-23T22:57:12.871Z,101474.62
2018-11-23T23:00:26.071Z,101473.04
2018-11-23T23:03:31.273Z,101468.02
2018-11-23T23:06:37.138Z,101457.53
2018-11-23T23:09:41.605Z,101448.84
2018-11-23T23:12:46.014Z,101453.09
2018-11-23T23:15:52.175Z,101445.33
2018-11-23T23:18:56.513Z,101441.95
2018-11-23T23:22:01.014Z,101446.61
2018-11-23T23:25:05.655Z,101440.78
2018-11-23T23:28:10.243Z,101445.69
2018-11-23T23:31:14.598Z,101433.34
2018-11-23T23:34:19.310Z,101437.98
2018-11-23T23:37:23.704Z,101431.10
2018-11-23T23:40:28.278Z,101422.70
2018-11-23T23:43:32.765Z,101419.73
2018-11-23T23:46:37.276Z,101419.22
2018-11-23T23:49:41.735Z,101411.33
2018-11-23T23:52:46.824Z,101411.41
2018-11-23T23:55:51.284Z,101401.07
2018-11-23T23:58:56.838Z,101400.27
